createdAt,value
2022-11-17T00:00:37.292Z,15.47
2022-11-17T00:03:04.064Z,14.90
2022-11-17T00:05:30.710Z,13.90
2022-11-17T00:07:57.499Z,18.20
2022-11-17T00:10:24.158Z,17.97
2022-11-17T00:13:09.590Z,18.77
2022-11-17T00:15:36.405Z,17.27
2022-11-17T00:18:21.835Z,17.20
2022-11-17T00:21:07.061Z,18.13
2022-11-17T00:23:49.786Z,15.17
2022-11-17T00:26:19.297Z,17.00
2022-11-17T00:28:46.032Z,19.57
2022-11-17T00:31:32.650Z,16.70
2022-11-17T00:34:05.800Z,17.67
2022-11-17T00:36:43.380Z,22.30
2022-11-17T00:39:10.818Z,17.47
2022-11-17T00:41:37.757Z,16.57
2022-11-17T00:44:05.093Z,17.73
2022-11-17T00:46:31.928Z,18.53
2022-11-17T00:48:58.738Z,16.90
2022-11-17T00:51:25.608Z,18.80
2022-11-17T00:53:52.768Z,17.03
2022-11-17T00:56:19.405Z,16.87
2022-11-17T00:58:46.122Z,25.20
2022-11-17T01:01:13.368Z,14.93
2022-11-17T01:03:40.108Z,16.63
2022-11-17T01:06:11.639Z,18.77
2022-11-17T01:08:38.901Z,13.67
2022-11-17T01:11:31.939Z,17.00
2022-11-17T01:14:00.510Z,15.83
2022-11-17T01:16:29.912Z,18.10
2022-11-17T01:18:59.615Z,18.00
2022-11-17T01:21:28.225Z,17.57
2022-11-17T01:23:57.185Z,21.40
2022-11-17T01:26:26.518Z,22.50
2022-11-17T01:28:53.528Z,19.70
2022-11-17T01:31:26.011Z,20.20
2022-11-17T01:33:53.016Z,16.37
2022-11-17T01:36:27.076Z,17.57
2022-11-17T01:38:54.051Z,17.80
2022-11-17T01:41:23.519Z,17.77
2022-11-17T01:43:55.836Z,22.27
2022-11-17T01:46:34.285Z,14.70
2022-11-17T01:49:21.815Z,18.90
2022-11-17T01:51:56.740Z,19.20
2022-11-17T01:54:26.670Z,19.10
2022-11-17T01:56:58.315Z,17.90
2022-11-17T01:59:40.140Z,22.73
2022-11-17T02:02:07.373Z,22.13
2022-11-17T02:04:42.955Z,19.03
2022-11-17T02:07:24.729Z,21.60
2022-11-17T02:09:52.880Z,26.13
2022-11-17T02:12:21.348Z,28.50
2022-11-17T02:14:49.792Z,25.13
2022-11-17T02:17:18.068Z,27.03
2022-11-17T02:19:48.863Z,22.43
2022-11-17T02:22:49.549Z,26.77
2022-11-17T02:26:00.803Z,29.43
2022-11-17T02:28:32.789Z,18.53
2022-11-17T02:31:23.469Z,17.07
2022-11-17T02:34:05.217Z,18.90
2022-11-17T02:36:43.996Z,14.80
2022-11-17T02:39:22.661Z,16.60
2022-11-17T02:42:04.948Z,15.87
2022-11-17T02:44:36.650Z,12.60
2022-11-17T02:47:09.745Z,17.23
2022-11-17T02:49:41.215Z,16.47
2022-11-17T02:52:09.274Z,20.77
2022-11-17T02:54:35.869Z,19.57
2022-11-17T02:57:02.473Z,33.53
2022-11-17T02:59:48.785Z,27.30
2022-11-17T03:02:20.268Z,22.00
2022-11-17T03:05:17.080Z,18.47
2022-11-17T03:08:13.462Z,22.10
2022-11-17T03:11:02.625Z,14.57
2022-11-17T03:13:32.446Z,21.57
2022-11-17T03:16:24.876Z,18.67
2022-11-17T03:18:59.647Z,19.80
2022-11-17T03:21:31.533Z,16.40
2022-11-17T03:24:01.257Z,14.53
2022-11-17T03:26:33.694Z,15.60
2022-11-17T03:29:03.724Z,16.00
2022-11-17T03:31:32.735Z,14.50
2022-11-17T03:34:02.663Z,15.83
2022-11-17T03:36:34.640Z,20.07
2022-11-17T03:39:30.647Z,18.67
2022-11-17T03:42:02.796Z,21.27
2022-11-17T03:44:32.229Z,25.50
2022-11-17T03:47:02.363Z,24.60
2022-11-17T03:49:51.177Z,24.67
2022-11-17T03:52:18.828Z,29.63
2022-11-17T03:54:45.613Z,33.80
2022-11-17T03:57:40.026Z,24.07
2022-11-17T04:00:12.612Z,26.50
2022-11-17T04:02:48.281Z,26.70
2022-11-17T04:05:17.917Z,25.13
2022-11-17T04:07:46.690Z,21.47
2022-11-17T04:10:19.305Z,24.03
2022-11-17T04:13:05.325Z,24.53
2022-11-17T04:15:50.790Z,26.70
2022-11-17T04:18:17.722Z,23.03
2022-11-17T04:20:44.421Z,21.73
2022-11-17T04:23:15.381Z,29.43
2022-11-17T04:26:08.643Z,27.17
2022-11-17T04:28:38.781Z,31.03
2022-11-17T04:31:18.701Z,28.37
2022-11-17T04:33:49.665Z,29.00
2022-11-17T04:36:19.187Z,28.00
2022-11-17T04:38:51.808Z,30.50
2022-11-17T04:41:38.613Z,27.80
2022-11-17T04:44:06.983Z,25.60
2022-11-17T04:46:35.418Z,26.77
2022-11-17T04:49:02.931Z,29.20
2022-11-17T04:51:30.487Z,25.70
2022-11-17T04:53:57.785Z,22.07
2022-11-17T04:56:25.973Z,26.73
2022-11-17T04:58:52.955Z,23.67
2022-11-17T05:01:20.977Z,24.63
2022-11-17T05:04:11.649Z,28.10
2022-11-17T05:06:38.175Z,24.13
2022-11-17T05:09:08.251Z,29.73
2022-11-17T05:11:53.431Z,25.17
2022-11-17T05:14:22.990Z,22.93
2022-11-17T05:17:09.600Z,30.60
2022-11-17T05:19:45.685Z,25.77
2022-11-17T05:22:34.081Z,26.63
2022-11-17T05:25:00.784Z,20.90
2022-11-17T05:27:28.048Z,20.53
2022-11-17T05:29:54.595Z,25.77
2022-11-17T05:32:21.793Z,18.77
2022-11-17T05:34:48.417Z,23.13
2022-11-17T05:37:15.141Z,21.27
2022-11-17T05:39:41.741Z,20.13
2022-11-17T05:42:08.350Z,25.07
2022-11-17T05:44:35.013Z,22.90
2022-11-17T05:47:01.969Z,26.57
2022-11-17T05:49:28.704Z,25.50
2022-11-17T05:51:55.537Z,25.10
2022-11-17T05:54:22.364Z,26.77
2022-11-17T05:57:04.404Z,24.90
2022-11-17T05:59:40.901Z,24.03
2022-11-17T06:02:16.677Z,24.80
2022-11-17T06:04:43.984Z,24.50
2022-11-17T06:07:11.160Z,23.30
2022-11-17T06:09:41.453Z,20.73
2022-11-17T06:12:08.993Z,22.33
2022-11-17T06:14:37.616Z,22.27
2022-11-17T06:17:09.582Z,21.00
2022-11-17T06:19:43.981Z,19.17
2022-11-17T06:22:12.761Z,22.40
2022-11-17T06:24:42.050Z,21.67
2022-11-17T06:27:10.747Z,20.70
2022-11-17T06:29:42.636Z,23.57
2022-11-17T06:32:11.317Z,21.50
2022-11-17T06:34:38.135Z,24.40
2022-11-17T06:37:04.708Z,20.50
2022-11-17T06:39:31.366Z,21.07
2022-11-17T06:41:57.921Z,19.33
2022-11-17T06:44:24.469Z,21.03
2022-11-17T06:46:51.085Z,21.80
2022-11-17T06:49:17.766Z,21.43
2022-11-17T06:51:45.606Z,20.67
2022-11-17T06:54:14.707Z,18.50
2022-11-17T06:56:42.363Z,22.03
2022-11-17T06:59:09.180Z,16.47
2022-11-17T07:01:37.147Z,19.43
2022-11-17T07:04:03.964Z,18.30
2022-11-17T07:06:30.809Z,18.70
2022-11-17T07:08:57.524Z,22.47
2022-11-17T07:11:24.373Z,16.50
2022-11-17T07:13:51.145Z,24.13
2022-11-17T07:16:23.492Z,19.23
2022-11-17T07:18:52.401Z,15.93
2022-11-17T07:21:19.285Z,18.20
2022-11-17T07:23:47.432Z,14.53
2022-11-17T07:26:14.464Z,13.60
2022-11-17T07:28:41.399Z,13.70
2022-11-17T07:31:09.418Z,14.63
2022-11-17T07:33:36.840Z,11.10
2022-11-17T07:36:09.799Z,11.53
2022-11-17T07:38:38.269Z,10.80
2022-11-17T07:41:06.049Z,13.73
2022-11-17T07:43:34.009Z,14.27
2022-11-17T07:46:08.462Z,12.57
2022-11-17T07:48:36.716Z,13.43
2022-11-17T07:51:04.772Z,12.83
2022-11-17T07:53:33.256Z,13.00
2022-11-17T07:56:08.803Z,15.10
2022-11-17T07:58:36.433Z,13.87
2022-11-17T08:01:08.065Z,15.63
2022-11-17T08:03:34.876Z,15.00
2022-11-17T08:06:06.452Z,16.03
2022-11-17T08:08:34.249Z,14.23
2022-11-17T08:11:06.115Z,21.70
2022-11-17T08:13:33.258Z,10.13
2022-11-17T08:15:59.900Z,11.53
2022-11-17T08:18:27.078Z,10.27
2022-11-17T08:21:03.876Z,13.80
2022-11-17T08:23:30.565Z,13.00
2022-11-17T08:25:57.482Z,10.23
2022-11-17T08:28:24.075Z,11.83
2022-11-17T08:30:50.719Z,14.93
2022-11-17T08:33:17.564Z,13.90
2022-11-17T08:35:44.288Z,14.17
2022-11-17T08:38:15.410Z,10.90
2022-11-17T08:40:42.624Z,9.90
2022-11-17T08:43:09.351Z,12.17
2022-11-17T08:45:35.967Z,8.60
2022-11-17T08:48:04.057Z,9.67
2022-11-17T08:50:30.653Z,11.43
2022-11-17T08:52:57.282Z,10.27
2022-11-17T08:55:26.493Z,12.87
2022-11-17T08:57:53.365Z,10.60
2022-11-17T09:00:21.992Z,10.03
2022-11-17T09:02:48.901Z,11.37
2022-11-17T09:05:15.639Z,10.87
2022-11-17T09:07:42.851Z,8.90
2022-11-17T09:10:11.116Z,9.83
2022-11-17T09:12:38.054Z,9.33
2022-11-17T09:15:05.704Z,9.20
2022-11-17T09:17:32.597Z,12.37
2022-11-17T09:19:59.727Z,8.90
2022-11-17T09:22:26.580Z,7.77
2022-11-17T09:24:53.207Z,6.43
2022-11-17T09:27:19.904Z,12.07
2022-11-17T09:29:46.503Z,9.50
2022-11-17T09:32:13.471Z,12.30
2022-11-17T09:34:40.102Z,8.57
2022-11-17T09:37:06.725Z,10.73
2022-11-17T09:39:33.294Z,7.60
2022-11-17T09:41:59.961Z,7.13
2022-11-17T09:44:40.708Z,7.40
2022-11-17T09:47:20.796Z,8.23
2022-11-17T09:50:13.090Z,8.60
2022-11-17T09:52:58.108Z,8.40
2022-11-17T09:55:37.221Z,5.33
2022-11-17T09:58:49.831Z,5.33
2022-11-17T10:01:19.748Z,8.13
2022-11-17T10:03:48.671Z,6.60
2022-11-17T10:06:26.811Z,5.93
2022-11-17T10:09:00.330Z,5.27
2022-11-17T10:11:32.734Z,6.27
2022-11-17T10:14:08.424Z,4.57
2022-11-17T10:16:37.041Z,4.20
2022-11-17T10:19:28.291Z,5.23
2022-11-17T10:22:16.791Z,5.43
2022-11-17T10:24:46.859Z,9.20
2022-11-17T10:27:25.115Z,12.73
2022-11-17T10:30:07.190Z,10.40
2022-11-17T10:32:48.452Z,7.20
2022-11-17T10:35:21.004Z,7.67
2022-11-17T10:38:02.042Z,6.70
2022-11-17T10:40:45.656Z,7.17
2022-11-17T10:43:12.204Z,7.27
2022-11-17T10:45:45.791Z,7.17
2022-11-17T10:48:35.607Z,7.97
2022-11-17T10:51:21.101Z,7.80
2022-11-17T10:54:16.614Z,7.33
2022-11-17T10:56:55.944Z,7.40
2022-11-17T10:59:30.334Z,6.87
2022-11-17T11:01:57.898Z,8.07
2022-11-17T11:04:36.651Z,6.33
2022-11-17T11:07:13.477Z,6.87
2022-11-17T11:09:53.419Z,6.80
2022-11-17T11:12:34.386Z,8.03
2022-11-17T11:15:03.251Z,7.03
2022-11-17T11:17:30.051Z,7.90
2022-11-17T11:19:59.149Z,7.90
2022-11-17T11:22:29.094Z,9.60
2022-11-17T11:25:17.531Z,11.97
2022-11-17T11:27:50.059Z,8.13
2022-11-17T11:30:18.742Z,10.10
2022-11-17T11:33:04.187Z,10.10
2022-11-17T11:35:36.855Z,12.10
2022-11-17T11:38:27.746Z,12.70
2022-11-17T11:41:09.787Z,12.73
2022-11-17T11:43:53.102Z,8.40
2022-11-17T11:46:41.555Z,9.63
2022-11-17T11:49:21.494Z,7.40
2022-11-17T11:51:50.382Z,8.73
2022-11-17T11:54:24.534Z,9.70
2022-11-17T11:56:51.696Z,9.23
2022-11-17T11:59:31.078Z,7.80
2022-11-17T12:02:00.840Z,10.53
2022-11-17T12:04:43.820Z,9.07
2022-11-17T12:07:35.320Z,9.40
2022-11-17T12:10:15.790Z,7.73
2022-11-17T12:12:45.411Z,9.10
2022-11-17T12:15:12.414Z,9.37
2022-11-17T12:17:54.680Z,9.27
2022-11-17T12:20:33.495Z,7.93
2022-11-17T12:23:21.864Z,8.10
2022-11-17T12:25:54.581Z,9.50
2022-11-17T12:28:41.252Z,11.00
2022-11-17T12:31:12.415Z,9.50
2022-11-17T12:33:54.281Z,10.27
2022-11-17T12:36:29.699Z,9.17
2022-11-17T12:38:59.647Z,12.73
2022-11-17T12:41:48.195Z,10.10
2022-11-17T12:44:33.277Z,10.60
2022-11-17T12:47:19.887Z,10.10
2022-11-17T12:50:05.325Z,10.30
2022-11-17T12:52:37.055Z,10.60
2022-11-17T12:55:17.477Z,14.60
2022-11-17T12:57:47.179Z,8.87
2022-11-17T13:00:19.810Z,11.80
2022-11-17T13:02:59.296Z,10.20
2022-11-17T13:05:28.623Z,10.33
2022-11-17T13:08:30.810Z,13.73
2022-11-17T13:11:05.461Z,16.13
2022-11-17T13:13:34.008Z,11.40
2022-11-17T13:16:03.878Z,11.10
2022-11-17T13:18:40.353Z,8.90
2022-11-17T13:21:29.678Z,11.63
2022-11-17T13:23:57.761Z,10.07
2022-11-17T13:26:26.867Z,11.20
2022-11-17T13:29:19.152Z,10.17
2022-11-17T13:31:46.271Z,9.10
2022-11-17T13:34:13.486Z,10.30
2022-11-17T13:37:18.982Z,10.50
2022-11-17T13:40:03.532Z,10.67
2022-11-17T13:42:33.334Z,10.13
2022-11-17T13:45:02.984Z,10.97
2022-11-17T13:47:39.452Z,9.60
2022-11-17T13:50:27.231Z,9.53
2022-11-17T13:52:58.283Z,9.60
2022-11-17T13:55:26.317Z,11.83
2022-11-17T13:58:26.244Z,10.53
2022-11-17T14:00:56.519Z,8.93
2022-11-17T14:03:41.443Z,52.17
2022-11-17T14:06:13.591Z,15.67
2022-11-17T14:08:42.192Z,10.87
2022-11-17T14:11:21.165Z,11.33
2022-11-17T14:13:58.999Z,12.17
2022-11-17T14:16:39.832Z,12.93
2022-11-17T14:19:15.991Z,11.67
2022-11-17T14:22:29.507Z,9.47
2022-11-17T14:24:58.398Z,11.37
2022-11-17T14:27:31.862Z,14.40
2022-11-17T14:29:58.527Z,15.30
2022-11-17T14:32:25.286Z,20.30
2022-11-17T14:34:52.043Z,10.53
2022-11-17T14:37:18.932Z,8.57
2022-11-17T14:39:45.507Z,9.60
2022-11-17T14:42:12.211Z,7.83
2022-11-17T14:44:38.858Z,7.97
2022-11-17T14:47:05.501Z,7.40
2022-11-17T14:49:32.168Z,8.83
2022-11-17T14:51:59.309Z,7.13
2022-11-17T14:54:26.290Z,7.23
2022-11-17T14:56:52.910Z,6.97
2022-11-17T14:59:19.571Z,6.00
2022-11-17T15:01:46.242Z,5.90
2022-11-17T15:04:48.174Z,5.90
2022-11-17T15:07:02.643Z,8.60
2022-11-17T15:09:29.399Z,6.97
2022-11-17T15:11:56.170Z,7.87
2022-11-17T15:14:22.875Z,13.53
2022-11-17T15:16:49.715Z,9.27
2022-11-17T15:19:16.557Z,9.50
2022-11-17T15:21:43.299Z,9.80
2022-11-17T15:24:10.002Z,6.50
2022-11-17T15:26:36.748Z,8.70
2022-11-17T15:29:03.480Z,10.83
2022-11-17T15:31:30.614Z,8.00
2022-11-17T15:33:57.536Z,8.87
2022-11-17T15:36:24.640Z,5.87
2022-11-17T15:38:53.353Z,6.40
2022-11-17T15:41:20.388Z,6.93
2022-11-17T15:43:47.141Z,6.30
2022-11-17T15:46:18.579Z,5.40
2022-11-17T15:48:47.354Z,8.53
2022-11-17T15:51:16.495Z,7.43
2022-11-17T15:53:44.755Z,8.97
2022-11-17T15:56:17.078Z,8.30
2022-11-17T15:58:44.599Z,7.10
2022-11-17T16:01:11.342Z,7.10
2022-11-17T16:03:39.344Z,4.50
2022-11-17T16:06:06.640Z,6.17
2022-11-17T16:08:33.762Z,6.40
2022-11-17T16:11:01.015Z,5.57
2022-11-17T16:13:27.824Z,4.40
2022-11-17T16:15:54.773Z,5.20
2022-11-17T16:18:22.050Z,7.07
2022-11-17T16:20:48.887Z,6.73
2022-11-17T16:23:15.885Z,10.43
2022-11-17T16:25:44.387Z,9.80
2022-11-17T16:28:13.173Z,8.07
2022-11-17T16:30:43.396Z,11.10
2022-11-17T16:33:12.217Z,4.90
2022-11-17T16:35:40.523Z,3.87
2022-11-17T16:38:12.774Z,5.10
2022-11-17T16:40:39.977Z,2.80
2022-11-17T16:43:06.755Z,2.77
2022-11-17T16:45:44.862Z,3.40
2022-11-17T16:48:12.546Z,3.90
2022-11-17T16:50:41.125Z,3.70
2022-11-17T16:53:07.836Z,4.83
2022-11-17T16:55:37.750Z,4.73
2022-11-17T16:58:05.916Z,6.80
2022-11-17T17:00:33.211Z,9.20
2022-11-17T17:03:02.900Z,9.73
2022-11-17T17:05:29.748Z,11.10
2022-11-17T17:07:57.146Z,12.53
2022-11-17T17:10:24.759Z,8.10
2022-11-17T17:12:51.450Z,7.30
2022-11-17T17:15:18.270Z,4.77
2022-11-17T17:17:44.855Z,11.83
2022-11-17T17:20:11.855Z,10.63
2022-11-17T17:22:38.456Z,8.70
2022-11-17T17:25:05.647Z,11.40
2022-11-17T17:27:32.414Z,5.97
2022-11-17T17:29:59.112Z,5.10
2022-11-17T17:32:25.740Z,4.47
2022-11-17T17:34:52.366Z,10.93
2022-11-17T17:37:19.022Z,8.70
2022-11-17T17:39:45.642Z,14.60
2022-11-17T17:42:13.633Z,12.97
2022-11-17T17:44:40.276Z,13.50
2022-11-17T17:47:06.979Z,14.03
2022-11-17T17:49:33.600Z,16.60
2022-11-17T17:52:00.278Z,21.70
2022-11-17T17:54:26.950Z,26.70
2022-11-17T17:56:53.713Z,17.77
2022-11-17T17:59:20.448Z,12.90
2022-11-17T18:01:48.132Z,7.47
2022-11-17T18:04:16.464Z,5.10
2022-11-17T18:06:47.084Z,6.50
2022-11-17T18:09:15.570Z,5.47
2022-11-17T18:11:46.088Z,6.47
2022-11-17T18:14:13.339Z,7.13
2022-11-17T18:16:40.307Z,8.57
2022-11-17T18:19:08.792Z,8.33
2022-11-17T18:21:35.970Z,10.83
2022-11-17T18:24:03.418Z,8.57
2022-11-17T18:26:32.921Z,8.20
2022-11-17T18:29:27.040Z,7.80
2022-11-17T18:31:53.750Z,7.30
2022-11-17T18:34:22.897Z,6.40
2022-11-17T18:36:51.137Z,6.60
2022-11-17T18:39:18.503Z,7.27
2022-11-17T18:41:45.536Z,7.97
2022-11-17T18:44:13.804Z,7.00
2022-11-17T18:46:40.799Z,9.93
2022-11-17T18:49:07.494Z,8.50
2022-11-17T18:51:36.972Z,9.07
2022-11-17T18:54:04.182Z,8.73
2022-11-17T18:56:35.948Z,9.30
2022-11-17T18:59:04.024Z,9.50
2022-11-17T19:01:30.820Z,10.00
2022-11-17T19:04:02.427Z,7.00
2022-11-17T19:06:29.554Z,6.47
2022-11-17T19:08:58.920Z,6.90
2022-11-17T19:11:26.769Z,6.37
2022-11-17T19:13:53.494Z,6.27
2022-11-17T19:16:22.520Z,7.07
2022-11-17T19:18:53.032Z,6.43
2022-11-17T19:21:21.330Z,6.80
2022-11-17T19:23:51.880Z,7.80
2022-11-17T19:26:27.360Z,9.90
2022-11-17T19:28:58.967Z,11.20
2022-11-17T19:31:26.656Z,9.93
2022-11-17T19:33:54.314Z,10.23
2022-11-17T19:36:29.860Z,8.60
2022-11-17T19:38:58.379Z,8.90
2022-11-17T19:41:30.350Z,8.07
2022-11-17T19:43:59.597Z,8.50
2022-11-17T19:46:28.403Z,7.17
2022-11-17T19:48:56.471Z,8.03
2022-11-17T19:51:24.591Z,7.37
2022-11-17T19:53:54.068Z,7.10
2022-11-17T19:57:02.585Z,8.37
2022-11-17T19:59:36.937Z,8.80
2022-11-17T20:02:03.655Z,7.80
2022-11-17T20:04:30.376Z,8.47
2022-11-17T20:06:57.206Z,10.10
2022-11-17T20:09:23.905Z,9.60
2022-11-17T20:11:50.602Z,8.70
2022-11-17T20:14:17.217Z,12.83
2022-11-17T20:16:44.068Z,9.60
2022-11-17T20:19:11.562Z,9.23
2022-11-17T20:21:38.284Z,9.07
2022-11-17T20:24:04.998Z,9.77
2022-11-17T20:26:35.228Z,10.00
2022-11-17T20:29:01.988Z,9.87
2022-11-17T20:31:32.316Z,16.13
2022-11-17T20:34:00.681Z,16.27
2022-11-17T20:36:30.010Z,14.80
2022-11-17T20:38:59.180Z,13.30
2022-11-17T20:41:29.329Z,10.53
2022-11-17T20:43:57.667Z,11.90
2022-11-17T20:46:25.076Z,18.17
2022-11-17T20:48:52.117Z,18.63
2022-11-17T20:51:21.280Z,22.33
2022-11-17T20:53:47.944Z,23.73
2022-11-17T20:56:18.587Z,21.93
2022-11-17T20:58:45.773Z,17.70
2022-11-17T21:01:17.956Z,50.93
2022-11-17T21:03:48.111Z,33.97
2022-11-17T21:06:15.530Z,21.30
2022-11-17T21:08:43.671Z,20.80
2022-11-17T21:11:33.621Z,22.93
2022-11-17T21:14:00.771Z,17.80
2022-11-17T21:16:30.326Z,21.63
2022-11-17T21:18:57.217Z,23.60
2022-11-17T21:21:24.027Z,22.33
2022-11-17T21:23:54.662Z,18.50
2022-11-17T21:26:22.892Z,15.17
2022-11-17T21:28:50.328Z,13.90
2022-11-17T21:31:23.539Z,10.00
2022-11-17T21:33:55.071Z,9.90
2022-11-17T21:36:23.124Z,12.30
2022-11-17T21:38:50.197Z,10.20
2022-11-17T21:41:19.849Z,9.03
2022-11-17T21:43:48.563Z,8.13
2022-11-17T21:46:17.909Z,10.17
2022-11-17T21:48:45.356Z,8.53
2022-11-17T21:51:20.779Z,9.63
2022-11-17T21:53:51.579Z,9.20
2022-11-17T21:56:18.205Z,12.00
2022-11-17T21:58:44.854Z,10.20
2022-11-17T22:01:13.725Z,10.70
2022-11-17T22:03:41.629Z,8.50
2022-11-17T22:06:18.074Z,12.23
2022-11-17T22:08:50.250Z,8.67
2022-11-17T22:11:35.373Z,12.87
2022-11-17T22:14:14.291Z,8.47
2022-11-17T22:16:43.735Z,8.80
2022-11-17T22:19:12.045Z,8.50
2022-11-17T22:21:39.189Z,11.53
2022-11-17T22:24:07.869Z,9.53
2022-11-17T22:26:38.084Z,11.10
2022-11-17T22:29:06.652Z,9.30
2022-11-17T22:31:33.458Z,10.80
2022-11-17T22:34:00.144Z,10.33
2022-11-17T22:36:26.757Z,9.90
2022-11-17T22:38:53.497Z,12.20
2022-11-17T22:41:22.098Z,11.50
2022-11-17T22:43:50.736Z,11.60
2022-11-17T22:46:18.249Z,15.90
2022-11-17T22:48:45.112Z,11.97
2022-11-17T22:51:12.490Z,13.43
2022-11-17T22:53:39.266Z,16.10
2022-11-17T22:56:07.933Z,15.93
2022-11-17T22:58:34.930Z,17.67
2022-11-17T23:01:06.080Z,15.30
2022-11-17T23:03:33.430Z,14.23
2022-11-17T23:06:04.768Z,13.70
2022-11-17T23:08:32.134Z,12.80
2022-11-17T23:11:36.486Z,11.63
2022-11-17T23:13:49.430Z,15.67
2022-11-17T23:16:16.541Z,17.23
2022-11-17T23:18:43.566Z,15.10
2022-11-17T23:21:10.899Z,12.07
2022-11-17T23:23:40.054Z,13.33
2022-11-17T23:26:09.521Z,11.90
2022-11-17T23:28:40.132Z,13.30
2022-11-17T23:31:11.437Z,12.37
2022-11-17T23:33:40.680Z,11.40
2022-11-17T23:36:11.599Z,17.47
2022-11-17T23:38:38.239Z,11.40
2022-11-17T23:41:07.281Z,13.20
2022-11-17T23:43:34.124Z,11.17
2022-11-17T23:46:10.020Z,8.93
2022-11-17T23:48:36.983Z,14.33
2022-11-17T23:51:08.343Z,12.50
2022-11-17T23:53:35.361Z,11.83
2022-11-17T23:56:02.972Z,13.50
2022-11-17T23:58:29.777Z,18.70
